sensor_id;sensor_type;location;lat;lon;timestamp;P1;durP1;ratioP1;P2;durP2;ratioP2
23376;SDS011;14353;46.070;13.222;2024-01-10T00:01:33;4.28;;;3.40;;
23376;SDS011;14353;46.070;13.222;2024-01-10T00:03:59;4.65;;;3.50;;
23376;SDS011;14353;46.070;13.222;2024-01-10T00:06:24;5.22;;;3.75;;
23376;SDS011;14353;46.070;13.222;2024-01-10T00:08:50;4.90;;;3.75;;
23376;SDS011;14353;46.070;13.222;2024-01-10T00:11:16;4.45;;;3.55;;
23376;SDS011;14353;46.070;13.222;2024-01-10T00:13:42;4.03;;;3.47;;
23376;SDS011;14353;46.070;13.222;2024-01-10T00:16:08;4.55;;;3.80;;
23376;SDS011;14353;46.070;13.222;2024-01-10T00:18:34;4.50;;;3.60;;
23376;SDS011;14353;46.070;13.222;2024-01-10T00:20:59;5.03;;;3.63;;
23376;SDS011;14353;46.070;13.222;2024-01-10T00:23:25;4.95;;;3.58;;
23376;SDS011;14353;46.070;13.222;2024-01-10T00:25:51;5.35;;;3.88;;
23376;SDS011;14353;46.070;13.222;2024-01-10T00:28:17;5.20;;;3.55;;
23376;SDS011;14353;46.070;13.222;2024-01-10T00:30:43;5.72;;;3.92;;
23376;SDS011;14353;46.070;13.222;2024-01-10T00:33:09;4.68;;;3.78;;
23376;SDS011;14353;46.070;13.222;2024-01-10T00:35:36;4.72;;;3.72;;
23376;SDS011;14353;46.070;13.222;2024-01-10T00:38:02;5.15;;;3.60;;
23376;SDS011;14353;46.070;13.222;2024-01-10T00:40:28;6.15;;;3.80;;
23376;SDS011;14353;46.070;13.222;2024-01-10T00:42:53;4.40;;;3.47;;
23376;SDS011;14353;46.070;13.222;2024-01-10T00:45:19;4.72;;;3.65;;
23376;SDS011;14353;46.070;13.222;2024-01-10T00:47:45;3.83;;;3.30;;
23376;SDS011;14353;46.070;13.222;2024-01-10T00:50:13;4.93;;;3.72;;
23376;SDS011;14353;46.070;13.222;2024-01-10T00:52:39;4.55;;;3.60;;
23376;SDS011;14353;46.070;13.222;2024-01-10T00:55:05;5.40;;;3.95;;
23376;SDS011;14353;46.070;13.222;2024-01-10T00:57:30;3.50;;;3.20;;
23376;SDS011;14353;46.070;13.222;2024-01-10T00:59:56;4.85;;;3.75;;
23376;SDS011;14353;46.070;13.222;2024-01-10T01:02:22;3.95;;;3.22;;
23376;SDS011;14353;46.070;13.222;2024-01-10T01:04:48;4.22;;;3.28;;
23376;SDS011;14353;46.070;13.222;2024-01-10T01:07:13;5.10;;;3.70;;
23376;SDS011;14353;46.070;13.222;2024-01-10T01:09:39;4.28;;;3.60;;
23376;SDS011;14353;46.070;13.222;2024-01-10T01:12:05;5.05;;;3.88;;
23376;SDS011;14353;46.070;13.222;2024-01-10T01:14:30;4.18;;;3.30;;
23376;SDS011;14353;46.070;13.222;2024-01-10T01:16:56;4.22;;;3.55;;
23376;SDS011;14353;46.070;13.222;2024-01-10T01:19:22;5.95;;;3.80;;
23376;SDS011;14353;46.070;13.222;2024-01-10T01:21:47;5.53;;;3.95;;
23376;SDS011;14353;46.070;13.222;2024-01-10T01:24:13;4.47;;;3.70;;
23376;SDS011;14353;46.070;13.222;2024-01-10T01:26:39;4.43;;;3.58;;
23376;SDS011;14353;46.070;13.222;2024-01-10T01:29:04;4.00;;;3.60;;
23376;SDS011;14353;46.070;13.222;2024-01-10T01:31:31;4.45;;;3.75;;
23376;SDS011;14353;46.070;13.222;2024-01-10T01:33:56;3.88;;;3.40;;
23376;SDS011;14353;46.070;13.222;2024-01-10T01:36:22;4.25;;;3.63;;
23376;SDS011;14353;46.070;13.222;2024-01-10T01:38:48;3.90;;;3.13;;
23376;SDS011;14353;46.070;13.222;2024-01-10T01:41:14;4.95;;;3.90;;
23376;SDS011;14353;46.070;13.222;2024-01-10T01:43:40;6.22;;;3.90;;
23376;SDS011;14353;46.070;13.222;2024-01-10T01:46:06;4.82;;;3.70;;
23376;SDS011;14353;46.070;13.222;2024-01-10T01:48:32;4.53;;;3.30;;
23376;SDS011;14353;46.070;13.222;2024-01-10T01:51:00;4.25;;;3.55;;
23376;SDS011;14353;46.070;13.222;2024-01-10T01:53:27;5.45;;;4.00;;
23376;SDS011;14353;46.070;13.222;2024-01-10T01:55:54;4.43;;;3.65;;
23376;SDS011;14353;46.070;13.222;2024-01-10T01:58:22;5.45;;;3.55;;
23376;SDS011;14353;46.070;13.222;2024-01-10T02:00:48;4.47;;;3.40;;
23376;SDS011;14353;46.070;13.222;2024-01-10T02:03:15;4.60;;;3.85;;
23376;SDS011;14353;46.070;13.222;2024-01-10T02:05:40;4.68;;;3.45;;
23376;SDS011;14353;46.070;13.222;2024-01-10T02:08:06;4.95;;;4.00;;
23376;SDS011;14353;46.070;13.222;2024-01-10T02:10:33;4.72;;;3.75;;
23376;SDS011;14353;46.070;13.222;2024-01-10T02:12:59;4.40;;;3.60;;
23376;SDS011;14353;46.070;13.222;2024-01-10T02:15:26;4.80;;;3.67;;
23376;SDS011;14353;46.070;13.222;2024-01-10T02:17:51;5.35;;;4.00;;
23376;SDS011;14353;46.070;13.222;2024-01-10T02:20:17;5.13;;;3.60;;
23376;SDS011;14353;46.070;13.222;2024-01-10T02:22:43;4.30;;;3.50;;
23376;SDS011;14353;46.070;13.222;2024-01-10T02:25:13;4.85;;;3.60;;
23376;SDS011;14353;46.070;13.222;2024-01-10T02:27:42;4.63;;;3.45;;
23376;SDS011;14353;46.070;13.222;2024-01-10T02:30:08;4.28;;;3.60;;
23376;SDS011;14353;46.070;13.222;2024-01-10T02:32:34;4.38;;;3.38;;
23376;SDS011;14353;46.070;13.222;2024-01-10T02:35:01;4.43;;;3.65;;
23376;SDS011;14353;46.070;13.222;2024-01-10T02:37:27;5.05;;;3.60;;
23376;SDS011;14353;46.070;13.222;2024-01-10T02:39:53;4.00;;;3.40;;
23376;SDS011;14353;46.070;13.222;2024-01-10T02:42:19;4.43;;;3.58;;
23376;SDS011;14353;46.070;13.222;2024-01-10T02:44:45;4.00;;;3.40;;
23376;SDS011;14353;46.070;13.222;2024-01-10T02:47:11;3.90;;;3.30;;
23376;SDS011;14353;46.070;13.222;2024-01-10T02:49:38;5.35;;;3.70;;
23376;SDS011;14353;46.070;13.222;2024-01-10T02:52:04;4.80;;;4.00;;
23376;SDS011;14353;46.070;13.222;2024-01-10T02:54:30;4.88;;;3.50;;
23376;SDS011;14353;46.070;13.222;2024-01-10T02:56:55;4.55;;;3.67;;
23376;SDS011;14353;46.070;13.222;2024-01-10T02:59:21;4.90;;;3.80;;
23376;SDS011;14353;46.070;13.222;2024-01-10T03:01:47;5.57;;;3.90;;
23376;SDS011;14353;46.070;13.222;2024-01-10T03:04:12;3.85;;;3.42;;
23376;SDS011;14353;46.070;13.222;2024-01-10T03:06:38;4.28;;;3.30;;
23376;SDS011;14353;46.070;13.222;2024-01-10T03:09:04;3.88;;;3.47;;
23376;SDS011;14353;46.070;13.222;2024-01-10T03:11:29;4.22;;;3.47;;
23376;SDS011;14353;46.070;13.222;2024-01-10T03:14:01;4.68;;;3.42;;
23376;SDS011;14353;46.070;13.222;2024-01-10T03:16:36;3.92;;;3.17;;
23376;SDS011;14353;46.070;13.222;2024-01-10T03:19:02;4.55;;;3.30;;
23376;SDS011;14353;46.070;13.222;2024-01-10T03:21:28;4.75;;;3.58;;
23376;SDS011;14353;46.070;13.222;2024-01-10T03:23:57;4.80;;;3.63;;
23376;SDS011;14353;46.070;13.222;2024-01-10T03:26:25;4.68;;;3.70;;
23376;SDS011;14353;46.070;13.222;2024-01-10T03:28:52;4.55;;;3.72;;
23376;SDS011;14353;46.070;13.222;2024-01-10T03:31:18;4.53;;;3.67;;
23376;SDS011;14353;46.070;13.222;2024-01-10T03:33:44;4.60;;;3.70;;
23376;SDS011;14353;46.070;13.222;2024-01-10T03:36:14;6.50;;;3.88;;
23376;SDS011;14353;46.070;13.222;2024-01-10T03:38:40;4.95;;;3.63;;
23376;SDS011;14353;46.070;13.222;2024-01-10T03:41:06;4.20;;;3.50;;
23376;SDS011;14353;46.070;13.222;2024-01-10T03:43:32;4.88;;;3.65;;
23376;SDS011;14353;46.070;13.222;2024-01-10T03:45:58;5.10;;;3.50;;
23376;SDS011;14353;46.070;13.222;2024-01-10T03:48:24;4.43;;;3.72;;
23376;SDS011;14353;46.070;13.222;2024-01-10T03:50:50;4.53;;;3.67;;
23376;SDS011;14353;46.070;13.222;2024-01-10T03:53:15;4.07;;;3.38;;
23376;SDS011;14353;46.070;13.222;2024-01-10T03:55:41;4.55;;;3.55;;
23376;SDS011;14353;46.070;13.222;2024-01-10T03:58:07;4.97;;;3.75;;
23376;SDS011;14353;46.070;13.222;2024-01-10T04:00:33;4.95;;;4.03;;
23376;SDS011;14353;46.070;13.222;2024-01-10T04:02:58;5.25;;;3.70;;
23376;SDS011;14353;46.070;13.222;2024-01-10T04:05:24;4.35;;;3.70;;
23376;SDS011;14353;46.070;13.222;2024-01-10T04:07:50;4.75;;;3.47;;
23376;SDS011;14353;46.070;13.222;2024-01-10T04:10:19;4.55;;;3.65;;
23376;SDS011;14353;46.070;13.222;2024-01-10T04:12:46;5.32;;;3.85;;
23376;SDS011;14353;46.070;13.222;2024-01-10T04:15:11;4.25;;;3.53;;
23376;SDS011;14353;46.070;13.222;2024-01-10T04:17:37;4.25;;;3.78;;
23376;SDS011;14353;46.070;13.222;2024-01-10T04:20:03;4.82;;;3.83;;
23376;SDS011;14353;46.070;13.222;2024-01-10T04:22:30;5.22;;;3.65;;
23376;SDS011;14353;46.070;13.222;2024-01-10T04:25:00;4.28;;;3.53;;
23376;SDS011;14353;46.070;13.222;2024-01-10T04:27:26;4.78;;;3.60;;
23376;SDS011;14353;46.070;13.222;2024-01-10T04:29:53;4.95;;;4.00;;
23376;SDS011;14353;46.070;13.222;2024-01-10T04:32:19;4.63;;;3.70;;
23376;SDS011;14353;46.070;13.222;2024-01-10T04:34:45;5.43;;;3.88;;
23376;SDS011;14353;46.070;13.222;2024-01-10T04:37:11;3.92;;;3.47;;
23376;SDS011;14353;46.070;13.222;2024-01-10T04:39:39;5.43;;;3.60;;
23376;SDS011;14353;46.070;13.222;2024-01-10T04:42:07;4.32;;;3.42;;
23376;SDS011;14353;46.070;13.222;2024-01-10T04:44:33;4.30;;;3.35;;
23376;SDS011;14353;46.070;13.222;2024-01-10T04:46:59;4.55;;;3.60;;
23376;SDS011;14353;46.070;13.222;2024-01-10T04:49:25;5.15;;;3.30;;
23376;SDS011;14353;46.070;13.222;2024-01-10T04:51:51;5.47;;;3.80;;
23376;SDS011;14353;46.070;13.222;2024-01-10T04:54:17;4.55;;;3.75;;
23376;SDS011;14353;46.070;13.222;2024-01-10T04:56:42;4.90;;;3.78;;
23376;SDS011;14353;46.070;13.222;2024-01-10T04:59:08;4.78;;;3.50;;
23376;SDS011;14353;46.070;13.222;2024-01-10T05:01:34;6.10;;;3.75;;
23376;SDS011;14353;46.070;13.222;2024-01-10T05:04:00;4.35;;;3.63;;
23376;SDS011;14353;46.070;13.222;2024-01-10T05:06:25;4.63;;;3.67;;
23376;SDS011;14353;46.070;13.222;2024-01-10T05:08:51;4.45;;;3.47;;
23376;SDS011;14353;46.070;13.222;2024-01-10T05:11:17;4.95;;;3.60;;
23376;SDS011;14353;46.070;13.222;2024-01-10T05:13:43;5.28;;;3.72;;
23376;SDS011;14353;46.070;13.222;2024-01-10T05:16:09;5.32;;;3.60;;
23376;SDS011;14353;46.070;13.222;2024-01-10T05:18:34;4.57;;;3.50;;
23376;SDS011;14353;46.070;13.222;2024-01-10T05:21:00;4.32;;;3.42;;
23376;SDS011;14353;46.070;13.222;2024-01-10T05:23:26;5.03;;;3.67;;
23376;SDS011;14353;46.070;13.222;2024-01-10T05:25:53;4.93;;;3.67;;
23376;SDS011;14353;46.070;13.222;2024-01-10T05:28:19;5.45;;;3.80;;
23376;SDS011;14353;46.070;13.222;2024-01-10T05:30:44;4.47;;;3.53;;
23376;SDS011;14353;46.070;13.222;2024-01-10T05:33:10;5.70;;;3.70;;
23376;SDS011;14353;46.070;13.222;2024-01-10T05:35:38;4.47;;;3.60;;
23376;SDS011;14353;46.070;13.222;2024-01-10T05:38:04;4.40;;;3.85;;
23376;SDS011;14353;46.070;13.222;2024-01-10T05:40:30;4.88;;;3.90;;
23376;SDS011;14353;46.070;13.222;2024-01-10T05:42:56;4.63;;;3.70;;
23376;SDS011;14353;46.070;13.222;2024-01-10T05:45:22;5.22;;;3.60;;
23376;SDS011;14353;46.070;13.222;2024-01-10T05:47:48;4.50;;;3.50;;
23376;SDS011;14353;46.070;13.222;2024-01-10T05:50:14;4.45;;;3.50;;
23376;SDS011;14353;46.070;13.222;2024-01-10T05:52:39;5.30;;;3.67;;
23376;SDS011;14353;46.070;13.222;2024-01-10T05:55:05;5.60;;;3.63;;
23376;SDS011;14353;46.070;13.222;2024-01-10T05:57:34;3.83;;;3.28;;
23376;SDS011;14353;46.070;13.222;2024-01-10T06:00:00;4.38;;;3.72;;
23376;SDS011;14353;46.070;13.222;2024-01-10T06:02:26;3.85;;;3.35;;
23376;SDS011;14353;46.070;13.222;2024-01-10T06:04:54;4.05;;;3.30;;
23376;SDS011;14353;46.070;13.222;2024-01-10T06:07:20;4.75;;;3.65;;
23376;SDS011;14353;46.070;13.222;2024-01-10T06:09:46;4.63;;;3.67;;
23376;SDS011;14353;46.070;13.222;2024-01-10T06:12:12;3.90;;;3.50;;
23376;SDS011;14353;46.070;13.222;2024-01-10T06:14:39;4.30;;;3.55;;
23376;SDS011;14353;46.070;13.222;2024-01-10T06:17:06;4.22;;;3.30;;
23376;SDS011;14353;46.070;13.222;2024-01-10T06:19:31;3.97;;;3.25;;
23376;SDS011;14353;46.070;13.222;2024-01-10T06:21:57;4.40;;;3.45;;
23376;SDS011;14353;46.070;13.222;2024-01-10T06:24:24;4.38;;;3.25;;
23376;SDS011;14353;46.070;13.222;2024-01-10T06:26:50;4.10;;;3.42;;
23376;SDS011;14353;46.070;13.222;2024-01-10T06:29:16;3.97;;;3.38;;
23376;SDS011;14353;46.070;13.222;2024-01-10T06:31:41;5.20;;;3.80;;
23376;SDS011;14353;46.070;13.222;2024-01-10T06:34:08;4.50;;;3.40;;
23376;SDS011;14353;46.070;13.222;2024-01-10T06:36:34;4.75;;;3.58;;
23376;SDS011;14353;46.070;13.222;2024-01-10T06:39:00;5.25;;;3.30;;
23376;SDS011;14353;46.070;13.222;2024-01-10T06:41:26;4.72;;;3.30;;
23376;SDS011;14353;46.070;13.222;2024-01-10T06:43:52;4.25;;;3.33;;
23376;SDS011;14353;46.070;13.222;2024-01-10T06:46:18;3.97;;;3.28;;
23376;SDS011;14353;46.070;13.222;2024-01-10T06:48:44;3.85;;;3.22;;
23376;SDS011;14353;46.070;13.222;2024-01-10T06:51:12;4.65;;;3.47;;
23376;SDS011;14353;46.070;13.222;2024-01-10T06:53:38;4.45;;;3.60;;
23376;SDS011;14353;46.070;13.222;2024-01-10T06:56:04;4.45;;;3.47;;
23376;SDS011;14353;46.070;13.222;2024-01-10T06:58:31;5.45;;;4.13;;
23376;SDS011;14353;46.070;13.222;2024-01-10T07:00:56;7.85;;;4.10;;
23376;SDS011;14353;46.070;13.222;2024-01-10T07:03:23;5.75;;;4.13;;
23376;SDS011;14353;46.070;13.222;2024-01-10T07:05:48;8.45;;;4.30;;
23376;SDS011;14353;46.070;13.222;2024-01-10T07:08:14;8.40;;;4.50;;
23376;SDS011;14353;46.070;13.222;2024-01-10T07:10:42;9.43;;;4.30;;
23376;SDS011;14353;46.070;13.222;2024-01-10T07:13:10;13.88;;;4.60;;
23376;SDS011;14353;46.070;13.222;2024-01-10T07:15:38;11.52;;;4.78;;
23376;SDS011;14353;46.070;13.222;2024-01-10T07:18:04;7.80;;;4.28;;
23376;SDS011;14353;46.070;13.222;2024-01-10T07:20:31;13.38;;;4.20;;
23376;SDS011;14353;46.070;13.222;2024-01-10T07:22:58;16.60;;;4.65;;
23376;SDS011;14353;46.070;13.222;2024-01-10T07:25:24;8.60;;;4.18;;
23376;SDS011;14353;46.070;13.222;2024-01-10T07:27:53;9.27;;;4.30;;
23376;SDS011;14353;46.070;13.222;2024-01-10T07:30:19;9.85;;;4.55;;
23376;SDS011;14353;46.070;13.222;2024-01-10T07:32:45;13.27;;;4.55;;
23376;SDS011;14353;46.070;13.222;2024-01-10T07:35:11;10.35;;;4.57;;
23376;SDS011;14353;46.070;13.222;2024-01-10T07:37:39;8.88;;;4.53;;
23376;SDS011;14353;46.070;13.222;2024-01-10T07:40:06;11.13;;;4.65;;
23376;SDS011;14353;46.070;13.222;2024-01-10T07:42:36;9.93;;;4.38;;
23376;SDS011;14353;46.070;13.222;2024-01-10T07:45:02;7.97;;;4.25;;
23376;SDS011;14353;46.070;13.222;2024-01-10T07:47:29;8.07;;;4.22;;
23376;SDS011;14353;46.070;13.222;2024-01-10T07:50:04;14.82;;;4.40;;
23376;SDS011;14353;46.070;13.222;2024-01-10T07:52:29;8.50;;;4.57;;
23376;SDS011;14353;46.070;13.222;2024-01-10T07:54:55;7.57;;;4.22;;
23376;SDS011;14353;46.070;13.222;2024-01-10T07:57:22;10.43;;;4.63;;
23376;SDS011;14353;46.070;13.222;2024-01-10T07:59:47;8.02;;;4.30;;
23376;SDS011;14353;46.070;13.222;2024-01-10T08:02:13;8.88;;;4.57;;
23376;SDS011;14353;46.070;13.222;2024-01-10T08:04:39;7.82;;;4.00;;
23376;SDS011;14353;46.070;13.222;2024-01-10T08:07:04;11.63;;;4.13;;
23376;SDS011;14353;46.070;13.222;2024-01-10T08:09:32;11.27;;;4.45;;
23376;SDS011;14353;46.070;13.222;2024-01-10T08:11:58;9.20;;;4.22;;
23376;SDS011;14353;46.070;13.222;2024-01-10T08:14:24;10.45;;;4.35;;
23376;SDS011;14353;46.070;13.222;2024-01-10T08:16:49;11.75;;;4.32;;
23376;SDS011;14353;46.070;13.222;2024-01-10T08:19:18;13.00;;;4.22;;
23376;SDS011;14353;46.070;13.222;2024-01-10T08:21:44;7.38;;;4.28;;
23376;SDS011;14353;46.070;13.222;2024-01-10T08:24:09;8.93;;;3.88;;
23376;SDS011;14353;46.070;13.222;2024-01-10T08:26:35;9.60;;;4.03;;
23376;SDS011;14353;46.070;13.222;2024-01-10T08:29:03;7.25;;;4.28;;
23376;SDS011;14353;46.070;13.222;2024-01-10T08:31:29;8.15;;;4.10;;
23376;SDS011;14353;46.070;13.222;2024-01-10T08:33:54;11.75;;;4.35;;
23376;SDS011;14353;46.070;13.222;2024-01-10T08:36:22;7.63;;;4.20;;
23376;SDS011;14353;46.070;13.222;2024-01-10T08:38:49;6.68;;;3.55;;
23376;SDS011;14353;46.070;13.222;2024-01-10T08:41:15;8.85;;;4.07;;
23376;SDS011;14353;46.070;13.222;2024-01-10T08:43:41;7.00;;;4.38;;
23376;SDS011;14353;46.070;13.222;2024-01-10T08:46:10;9.32;;;3.88;;
23376;SDS011;14353;46.070;13.222;2024-01-10T08:48:36;8.80;;;3.80;;
23376;SDS011;14353;46.070;13.222;2024-01-10T08:51:02;10.15;;;3.92;;
23376;SDS011;14353;46.070;13.222;2024-01-10T08:53:27;6.03;;;3.75;;
23376;SDS011;14353;46.070;13.222;2024-01-10T08:55:53;7.72;;;3.97;;
23376;SDS011;14353;46.070;13.222;2024-01-10T08:58:19;7.43;;;3.80;;
23376;SDS011;14353;46.070;13.222;2024-01-10T09:00:46;9.65;;;3.72;;
23376;SDS011;14353;46.070;13.222;2024-01-10T09:03:12;10.23;;;4.10;;
23376;SDS011;14353;46.070;13.222;2024-01-10T09:05:38;6.30;;;3.78;;
23376;SDS011;14353;46.070;13.222;2024-01-10T09:08:04;7.28;;;4.22;;
23376;SDS011;14353;46.070;13.222;2024-01-10T09:10:30;8.13;;;3.78;;
23376;SDS011;14353;46.070;13.222;2024-01-10T09:12:58;9.85;;;3.80;;
23376;SDS011;14353;46.070;13.222;2024-01-10T09:15:24;8.50;;;4.20;;
23376;SDS011;14353;46.070;13.222;2024-01-10T09:17:50;5.97;;;3.50;;
23376;SDS011;14353;46.070;13.222;2024-01-10T09:20:17;9.48;;;4.05;;
23376;SDS011;14353;46.070;13.222;2024-01-10T09:22:43;9.82;;;3.92;;
23376;SDS011;14353;46.070;13.222;2024-01-10T09:25:09;10.45;;;3.40;;
23376;SDS011;14353;46.070;13.222;2024-01-10T09:27:38;6.78;;;3.42;;
23376;SDS011;14353;46.070;13.222;2024-01-10T09:30:05;6.28;;;3.80;;
23376;SDS011;14353;46.070;13.222;2024-01-10T09:32:33;8.32;;;3.17;;
23376;SDS011;14353;46.070;13.222;2024-01-10T09:35:01;10.48;;;4.03;;
23376;SDS011;14353;46.070;13.222;2024-01-10T09:37:27;6.65;;;3.40;;
23376;SDS011;14353;46.070;13.222;2024-01-10T09:39:53;11.75;;;3.42;;
23376;SDS011;14353;46.070;13.222;2024-01-10T09:42:19;8.77;;;3.20;;
23376;SDS011;14353;46.070;13.222;2024-01-10T09:44:49;16.88;;;3.40;;
23376;SDS011;14353;46.070;13.222;2024-01-10T09:47:15;9.43;;;3.20;;
23376;SDS011;14353;46.070;13.222;2024-01-10T09:49:41;9.60;;;3.60;;
23376;SDS011;14353;46.070;13.222;2024-01-10T09:52:10;11.45;;;3.50;;
23376;SDS011;14353;46.070;13.222;2024-01-10T09:54:40;11.00;;;2.85;;
23376;SDS011;14353;46.070;13.222;2024-01-10T09:57:07;10.65;;;3.40;;
23376;SDS011;14353;46.070;13.222;2024-01-10T09:59:35;8.68;;;3.30;;
23376;SDS011;14353;46.070;13.222;2024-01-10T10:02:00;11.43;;;3.58;;
23376;SDS011;14353;46.070;13.222;2024-01-10T10:04:29;18.40;;;3.67;;
23376;SDS011;14353;46.070;13.222;2024-01-10T10:06:59;9.73;;;3.28;;
23376;SDS011;14353;46.070;13.222;2024-01-10T10:09:27;8.43;;;3.40;;
23376;SDS011;14353;46.070;13.222;2024-01-10T10:11:55;7.20;;;3.22;;
23376;SDS011;14353;46.070;13.222;2024-01-10T10:14:22;9.93;;;3.03;;
23376;SDS011;14353;46.070;13.222;2024-01-10T10:16:51;12.10;;;3.20;;
23376;SDS011;14353;46.070;13.222;2024-01-10T10:19:23;7.85;;;3.13;;
23376;SDS011;14353;46.070;13.222;2024-01-10T10:21:50;11.88;;;3.47;;
23376;SDS011;14353;46.070;13.222;2024-01-10T10:24:16;13.82;;;3.40;;
23376;SDS011;14353;46.070;13.222;2024-01-10T10:26:42;10.18;;;2.90;;
23376;SDS011;14353;46.070;13.222;2024-01-10T10:29:08;10.50;;;3.53;;
23376;SDS011;14353;46.070;13.222;2024-01-10T10:31:34;7.60;;;3.10;;
23376;SDS011;14353;46.070;13.222;2024-01-10T10:34:01;10.27;;;3.30;;
23376;SDS011;14353;46.070;13.222;2024-01-10T10:36:27;10.73;;;2.75;;
23376;SDS011;14353;46.070;13.222;2024-01-10T10:38:55;11.80;;;3.10;;
23376;SDS011;14353;46.070;13.222;2024-01-10T10:41:20;12.32;;;3.60;;
23376;SDS011;14353;46.070;13.222;2024-01-10T10:43:46;11.00;;;3.20;;
23376;SDS011;14353;46.070;13.222;2024-01-10T10:46:15;14.48;;;3.60;;
23376;SDS011;14353;46.070;13.222;2024-01-10T10:48:41;9.90;;;2.83;;
23376;SDS011;14353;46.070;13.222;2024-01-10T10:53:42;11.77;;;3.42;;
23376;SDS011;14353;46.070;13.222;2024-01-10T10:56:12;12.50;;;3.28;;
23376;SDS011;14353;46.070;13.222;2024-01-10T10:58:39;13.70;;;3.30;;
23376;SDS011;14353;46.070;13.222;2024-01-10T11:01:07;7.82;;;2.97;;
23376;SDS011;14353;46.070;13.222;2024-01-10T11:03:37;12.50;;;3.22;;
23376;SDS011;14353;46.070;13.222;2024-01-10T11:06:05;10.38;;;2.95;;
23376;SDS011;14353;46.070;13.222;2024-01-10T11:08:45;5.85;;;2.95;;
23376;SDS011;14353;46.070;13.222;2024-01-10T11:14:21;20.15;;;3.60;;
23376;SDS011;14353;46.070;13.222;2024-01-10T11:16:57;12.02;;;2.97;;
23376;SDS011;14353;46.070;13.222;2024-01-10T11:25:31;8.68;;;2.67;;
23376;SDS011;14353;46.070;13.222;2024-01-10T11:27:57;7.32;;;2.70;;
23376;SDS011;14353;46.070;13.222;2024-01-10T11:30:35;7.88;;;2.72;;
23376;SDS011;14353;46.070;13.222;2024-01-10T11:33:20;10.95;;;2.70;;
23376;SDS011;14353;46.070;13.222;2024-01-10T11:36:05;18.65;;;3.40;;
23376;SDS011;14353;46.070;13.222;2024-01-10T11:38:32;7.35;;;2.67;;
23376;SDS011;14353;46.070;13.222;2024-01-10T11:40:57;9.82;;;3.10;;
23376;SDS011;14353;46.070;13.222;2024-01-10T11:43:23;7.70;;;2.78;;
23376;SDS011;14353;46.070;13.222;2024-01-10T11:45:52;13.63;;;2.85;;
23376;SDS011;14353;46.070;13.222;2024-01-10T11:48:26;6.25;;;2.97;;
23376;SDS011;14353;46.070;13.222;2024-01-10T11:50:53;8.80;;;2.72;;
23376;SDS011;14353;46.070;13.222;2024-01-10T11:56:11;8.98;;;2.70;;
23376;SDS011;14353;46.070;13.222;2024-01-10T11:59:13;9.07;;;2.90;;
23376;SDS011;14353;46.070;13.222;2024-01-10T12:01:39;10.05;;;2.70;;
23376;SDS011;14353;46.070;13.222;2024-01-10T12:04:06;10.88;;;2.80;;
23376;SDS011;14353;46.070;13.222;2024-01-10T12:06:34;16.20;;;2.85;;
23376;SDS011;14353;46.070;13.222;2024-01-10T12:09:01;8.65;;;2.60;;
23376;SDS011;14353;46.070;13.222;2024-01-10T12:11:33;6.65;;;2.60;;
23376;SDS011;14353;46.070;13.222;2024-01-10T12:14:00;11.05;;;2.60;;
23376;SDS011;14353;46.070;13.222;2024-01-10T12:16:27;9.10;;;3.00;;
23376;SDS011;14353;46.070;13.222;2024-01-10T12:18:54;8.77;;;2.67;;
23376;SDS011;14353;46.070;13.222;2024-01-10T12:21:20;11.23;;;2.80;;
23376;SDS011;14353;46.070;13.222;2024-01-10T12:23:46;9.25;;;2.92;;
23376;SDS011;14353;46.070;13.222;2024-01-10T12:26:13;12.40;;;2.75;;
23376;SDS011;14353;46.070;13.222;2024-01-10T12:28:40;11.63;;;3.17;;
23376;SDS011;14353;46.070;13.222;2024-01-10T12:31:07;8.30;;;2.78;;
23376;SDS011;14353;46.070;13.222;2024-01-10T12:33:33;8.30;;;2.90;;
23376;SDS011;14353;46.070;13.222;2024-01-10T12:36:06;9.30;;;2.90;;
23376;SDS011;14353;46.070;13.222;2024-01-10T12:38:36;11.32;;;3.15;;
23376;SDS011;14353;46.070;13.222;2024-01-10T12:41:03;18.08;;;3.65;;
23376;SDS011;14353;46.070;13.222;2024-01-10T12:43:34;21.67;;;3.13;;
23376;SDS011;14353;46.070;13.222;2024-01-10T12:46:06;11.32;;;3.25;;
23376;SDS011;14353;46.070;13.222;2024-01-10T12:48:34;10.60;;;2.88;;
23376;SDS011;14353;46.070;13.222;2024-01-10T12:51:05;12.10;;;2.95;;
23376;SDS011;14353;46.070;13.222;2024-01-10T12:53:33;15.77;;;3.08;;
23376;SDS011;14353;46.070;13.222;2024-01-10T12:56:00;11.38;;;3.10;;
23376;SDS011;14353;46.070;13.222;2024-01-10T12:58:26;11.75;;;3.20;;
23376;SDS011;14353;46.070;13.222;2024-01-10T13:00:52;13.85;;;3.00;;
23376;SDS011;14353;46.070;13.222;2024-01-10T13:03:18;11.23;;;2.72;;
23376;SDS011;14353;46.070;13.222;2024-01-10T13:05:44;6.35;;;2.47;;
23376;SDS011;14353;46.070;13.222;2024-01-10T13:08:10;11.18;;;2.40;;
23376;SDS011;14353;46.070;13.222;2024-01-10T13:10:37;8.15;;;2.53;;
23376;SDS011;14353;46.070;13.222;2024-01-10T13:13:06;6.18;;;2.38;;
23376;SDS011;14353;46.070;13.222;2024-01-10T13:15:31;11.43;;;2.42;;
23376;SDS011;14353;46.070;13.222;2024-01-10T13:17:57;7.78;;;2.70;;
23376;SDS011;14353;46.070;13.222;2024-01-10T13:20:23;10.38;;;2.80;;
23376;SDS011;14353;46.070;13.222;2024-01-10T13:22:49;10.18;;;2.63;;
23376;SDS011;14353;46.070;13.222;2024-01-10T13:25:16;7.93;;;2.72;;
23376;SDS011;14353;46.070;13.222;2024-01-10T13:27:42;7.20;;;2.42;;
23376;SDS011;14353;46.070;13.222;2024-01-10T13:30:08;9.90;;;2.63;;
23376;SDS011;14353;46.070;13.222;2024-01-10T13:32:37;7.25;;;2.80;;
23376;SDS011;14353;46.070;13.222;2024-01-10T13:35:03;6.32;;;2.70;;
23376;SDS011;14353;46.070;13.222;2024-01-10T13:37:29;7.65;;;2.63;;
23376;SDS011;14353;46.070;13.222;2024-01-10T13:39:57;9.32;;;2.53;;
23376;SDS011;14353;46.070;13.222;2024-01-10T13:42:23;8.48;;;2.80;;
23376;SDS011;14353;46.070;13.222;2024-01-10T13:44:49;6.28;;;2.42;;
23376;SDS011;14353;46.070;13.222;2024-01-10T13:47:17;6.38;;;2.10;;
23376;SDS011;14353;46.070;13.222;2024-01-10T13:49:43;6.13;;;2.40;;
23376;SDS011;14353;46.070;13.222;2024-01-10T13:52:09;6.15;;;2.25;;
23376;SDS011;14353;46.070;13.222;2024-01-10T13:54:34;10.73;;;2.80;;
23376;SDS011;14353;46.070;13.222;2024-01-10T13:57:01;6.68;;;2.85;;
23376;SDS011;14353;46.070;13.222;2024-01-10T13:59:28;4.03;;;2.45;;
23376;SDS011;14353;46.070;13.222;2024-01-10T14:01:54;8.05;;;2.38;;
23376;SDS011;14353;46.070;13.222;2024-01-10T14:04:20;6.63;;;2.30;;
23376;SDS011;14353;46.070;13.222;2024-01-10T14:06:47;4.68;;;2.35;;
23376;SDS011;14353;46.070;13.222;2024-01-10T14:09:13;5.85;;;2.40;;
23376;SDS011;14353;46.070;13.222;2024-01-10T14:11:39;7.63;;;2.63;;
23376;SDS011;14353;46.070;13.222;2024-01-10T14:14:05;5.22;;;2.03;;
23376;SDS011;14353;46.070;13.222;2024-01-10T14:16:31;5.85;;;2.55;;
23376;SDS011;14353;46.070;13.222;2024-01-10T14:18:56;4.90;;;2.42;;
23376;SDS011;14353;46.070;13.222;2024-01-10T14:21:22;6.70;;;2.08;;
23376;SDS011;14353;46.070;13.222;2024-01-10T14:23:48;6.28;;;2.60;;
23376;SDS011;14353;46.070;13.222;2024-01-10T14:26:14;5.20;;;2.00;;
23376;SDS011;14353;46.070;13.222;2024-01-10T14:28:41;5.85;;;2.08;;
23376;SDS011;14353;46.070;13.222;2024-01-10T14:31:06;3.95;;;1.90;;
23376;SDS011;14353;46.070;13.222;2024-01-10T14:33:32;11.43;;;2.38;;
23376;SDS011;14353;46.070;13.222;2024-01-10T14:35:59;5.32;;;2.30;;
23376;SDS011;14353;46.070;13.222;2024-01-10T14:38:25;5.20;;;2.10;;
23376;SDS011;14353;46.070;13.222;2024-01-10T14:40:51;7.45;;;2.25;;
23376;SDS011;14353;46.070;13.222;2024-01-10T14:43:17;4.00;;;2.20;;